Terminal Aerodrome Forecast
Issued by NWS Wilmington, OH

Home | Current Version | Previous Version | Text Only | Print | Product List | Glossary On
Versions: 1 2 3 4 5 6 7 8 9 10 11 12 13 14 15 16 17 18 19 20 21 22 23
898
FTUS41 KILN 290520
TAFILN
TAF
KILN 290520Z 2906/3006 26008KT P6SM SCT080
      TEMPO 2906/2908 BKN025
     FM291600 24012KT P6SM SCT250
     FM300100 23008KT P6SM SCT080 BKN200=

USA.gov is the U.S. government's official web portal to all federal, state and local government web resources and services.